F/V Mailys Charlie — FMIW — position and weather

sailwx.info

Track history (hours):
 
Tides and Currents Weather Stations Pressure Air Temp Water Temp Dewpoint Dewpoint Depression Visibility Wind Speed Wind Dir Waves Ship Positions

F/V Mailys Charlie

Last reported at 2015-Feb-12 23:31 UTC. Time now 2015-Mar-01 06:57 UTC.
Position N 47°08' W 002°33'.
Warning: this ship's position is 16 days out of date.

Length 19 m.

Type: Fishing. MMSI: 228240800.

Date/timePositionNaut miles runAvg speedWind from/ knotsBaromVisibWave heightAir tempDewpointWater temp
2015-Feb-12 23:31N 47°08' W 002°33'38 9.4
2015-Feb-12 19:31N 46°31' W 002°19'9 9.5
2015-Feb-12 18:32N 46°23' W 002°13'10 9.7
2015-Feb-12 17:29N 46°14' W 002°07'132 4.3
2015-Feb-11 10:32N 44°01' W 002°03'1 0.8
2015-Feb-11 09:25N 44°00' W 002°03'3 1.4
2015-Feb-11 07:17N 43°58' W 002°01'5 6.1
2015-Feb-11 06:32N 43°53' W 001°59'6 5.9
2015-Feb-11 05:33N 43°48' W 001°56'6 5.9
2015-Feb-11 04:33N 43°43' W 001°53'3 3.2
2015-Feb-11 03:33N 43°40' W 001°50'2 2.1
2015-Feb-11 02:32N 43°41' W 001°48'3 2.6
2015-Feb-11 01:30N 43°40' W 001°51'3 2.9
2015-Feb-11 00:31N 43°39' W 001°55'26 4.2
2015-Feb-10 18:23N 44°05' W 002°02'48 1.4
2015-Feb-09 09:26N 44°51' W 001°44'6 0.7
2015-Feb-09 01:33N 44°48' W 001°37'2 2.5
2015-Feb-09 00:33N 44°46' W 001°36'2 2.2
2015-Feb-08 23:33N 44°43' W 001°36'3 2.8
2015-Feb-08 22:33N 44°41' W 001°37'5 2.1
2015-Feb-08 20:13N 44°46' W 001°38'2 2.9
2015-Feb-08 19:33N 44°44' W 001°38'3 2.5
2015-Feb-08 18:32N 44°45' W 001°35'  
Track history (hours):
 
Tides and Currents Weather Stations Pressure Air Temp Water Temp Dewpoint Dewpoint Depression Visibility Wind Speed Wind Dir Waves Ship Positions

F/V Mailys Charlie

Last reported at 2015-Feb-12 23:31 UTC. Time now 2015-Mar-01 06:57 UTC.
Position N 47°08' W 002°33'.
Warning: this ship's position is 16 days out of date.

Length 19 m.

Type: Fishing. MMSI: 228240800.

Date/timePositionNaut miles runAvg speedWind from/ knotsBaromVisibWave heightAir tempDewpointWater temp
2015-Feb-12 23:31N 47°08' W 002°33'38 9.4
2015-Feb-12 19:31N 46°31' W 002°19'9 9.5
2015-Feb-12 18:32N 46°23' W 002°13'10 9.7
2015-Feb-12 17:29N 46°14' W 002°07'132 4.3
2015-Feb-11 10:32N 44°01' W 002°03'1 0.8
2015-Feb-11 09:25N 44°00' W 002°03'3 1.4
2015-Feb-11 07:17N 43°58' W 002°01'5 6.1
2015-Feb-11 06:32N 43°53' W 001°59'6 5.9
2015-Feb-11 05:33N 43°48' W 001°56'6 5.9
2015-Feb-11 04:33N 43°43' W 001°53'3 3.2
2015-Feb-11 03:33N 43°40' W 001°50'2 2.1
2015-Feb-11 02:32N 43°41' W 001°48'3 2.6
2015-Feb-11 01:30N 43°40' W 001°51'3 2.9
2015-Feb-11 00:31N 43°39' W 001°55'26 4.2
2015-Feb-10 18:23N 44°05' W 002°02'48 1.4
2015-Feb-09 09:26N 44°51' W 001°44'6 0.7
2015-Feb-09 01:33N 44°48' W 001°37'2 2.5
2015-Feb-09 00:33N 44°46' W 001°36'2 2.2
2015-Feb-08 23:33N 44°43' W 001°36'3 2.8
2015-Feb-08 22:33N 44°41' W 001°37'5 2.1
2015-Feb-08 20:13N 44°46' W 001°38'2 2.9
2015-Feb-08 19:33N 44°44' W 001°38'3 2.5
2015-Feb-08 18:32N 44°45' W 001°35'  

Dump ship's entire track history